Flight Track Log - Related Links

Times and Time Zones

All times are in EDT time to prevent confusion due to time zone crossing. See the CLH2342 flight status page for this flight to view local times or setup timezone preferences in your user account.

Time Position Orientation Groundspeed Altitude Reporting Facility
EDT Latitude Longitude Course Direction KTS MPH feet Rate Location/Type
Tue 05:46:00 AM 48.1850 12.2670 118° Southeast  Level Estimated
Tue 05:47:00 AM 48.1425 12.3868 118° Southeast  Level Estimated
Tue 05:48:00 AM 48.0874 12.5411 118° Southeast  Level Estimated
Tue 05:49:00 AM 48.0321 12.6952 118° Southeast  Level Estimated
Tue 05:50:00 AM 47.9766 12.8489 118° Southeast  Level Estimated
Tue 05:51:00 AM 47.9208 13.0023 118° Southeast  Level Estimated
Tue 05:52:00 AM 47.8649 13.1553 119° Southeast  Level Estimated
Tue 05:53:00 AM 47.8088 13.3080 119° Southeast  Level Estimated
Tue 05:54:00 AM 47.7525 13.4604 119° Southeast  Level Estimated
Tue 05:55:00 AM 47.6960 13.6125 119° Southeast  Level Estimated
Tue 05:56:00 AM 47.6393 13.7642 119° Southeast  Level Estimated
Tue 05:57:00 AM 47.5823 13.9156 119° Southeast  Level Estimated
Tue 05:58:00 AM 47.5252 14.0667 119° Southeast  Level Estimated
Tue 05:59:00 AM 47.4679 14.2174 119° Southeast  Level Estimated
Tue 06:00:00 AM 47.4104 14.3678 119° Southeast  Level Estimated
Tue 06:01:00 AM 47.3526 14.5179 120° Southeast  Level Estimated
Tue 06:02:00 AM 47.2947 14.6677 120° Southeast  Level Estimated
Tue 06:03:00 AM 47.2366 14.8171 120° Southeast  Level Estimated
Tue 06:04:00 AM 47.1783 14.9662 120° Southeast  Level Estimated
Tue 06:05:00 AM 47.1198 15.1150 120° Southeast  Level Estimated
Tue 06:06:00 AM 47.0612 15.2634 120° Southeast  Level Estimated
Tue 06:07:00 AM 47.0023 15.4115 120° Southeast  Level Estimated
Tue 06:08:00 AM 46.9911 15.4396 120° Southeast  Level Estimated
Tue 06:09:00 AM 46.9911 15.4396 204° Southwest  Level Estimated
Tue 06:10:00 AM 46.9911 15.4396 204° Southwest  Level Estimated
Tue 06:11:00 AM 46.9911 15.4396 204° Southwest  Level Estimated
Tue 06:12:00 AM 46.9911 15.4396 204° Southwest  Level Estimated
Tue 06:13:00 AM 46.9911 15.4396 204° Southwest  Level Estimated
Tue 06:14:00 AM 46.9911 15.4396 204° Southwest  Level Estimated
Tue 06:15:00 AM 46.9911 15.4396 204° Southwest  Level Estimated
Tue 06:16:00 AM 46.9911 15.4396 204° Southwest  Level Estimated
Tue 06:17:00 AM 46.9911 15.4396 204° Southwest  Level Estimated
Tue 06:18:00 AM 46.9911 15.4396 204° Southwest  Level Estimated
Tue 06:19:00 AM 46.9911 15.4396 204° Southwest  Level Estimated
Tue 06:20:00 AM 46.9911 15.4396 204° Southwest  Level Estimated
Tue 06:21:00 AM 46.9911 15.4396 204° Southwest  Level Estimated
Tue 06:22:00 AM 46.9911 15.4396 204° Southwest  Level Estimated

Login

Don't have an account? Register now (free) for customized features, flight alerts, and more!